sensor_id;sensor_type;location;lat;lon;timestamp;pressure;altitude;pressure_sealevel;temperature;humidity
60087;BME280;45960;53.630;55.972;2023-04-24T00:00:45;100491.63;;;6.12;55.82
60087;BME280;45960;53.630;55.972;2023-04-24T00:01:46;100489.91;;;6.11;55.91
60087;BME280;45960;53.630;55.972;2023-04-24T00:02:47;100494.41;;;6.09;55.61
60087;BME280;45960;53.630;55.972;2023-04-24T00:03:48;100491.88;;;6.05;55.71
60087;BME280;45960;53.630;55.972;2023-04-24T00:04:49;100499.84;;;6.05;55.58
60087;BME280;45960;53.630;55.972;2023-04-24T00:05:50;100488.56;;;6.00;55.41
60087;BME280;45960;53.630;55.972;2023-04-24T00:06:52;100475.72;;;5.90;55.36
60087;BME280;45960;53.630;55.972;2023-04-24T00:07:57;100494.88;;;5.98;55.69
60087;BME280;45960;53.630;55.972;2023-04-24T00:09:00;100495.84;;;5.95;55.80
60087;BME280;45960;53.630;55.972;2023-04-24T00:10:01;100497.66;;;5.95;55.82
60087;BME280;45960;53.630;55.972;2023-04-24T00:11:03;100495.97;;;5.92;55.74
60087;BME280;45960;53.630;55.972;2023-04-24T00:12:04;100501.25;;;5.92;55.86
60087;BME280;45960;53.630;55.972;2023-04-24T00:13:05;100498.75;;;5.89;55.89
60087;BME280;45960;53.630;55.972;2023-04-24T00:14:06;100498.78;;;5.88;56.00
60087;BME280;45960;53.630;55.972;2023-04-24T00:15:08;100505.09;;;5.85;55.99
60087;BME280;45960;53.630;55.972;2023-04-24T00:16:09;100508.66;;;5.84;55.84
60087;BME280;45960;53.630;55.972;2023-04-24T00:17:10;100499.91;;;5.82;55.94
60087;BME280;45960;53.630;55.972;2023-04-24T00:18:11;100507.09;;;5.80;55.91
60087;BME280;45960;53.630;55.972;2023-04-24T00:19:12;100500.03;;;5.79;56.13
60087;BME280;45960;53.630;55.972;2023-04-24T00:20:13;100503.63;;;5.78;55.89
60087;BME280;45960;53.630;55.972;2023-04-24T00:21:15;100510.78;;;5.76;56.05
60087;BME280;45960;53.630;55.972;2023-04-24T00:22:19;100503.75;;;5.75;56.25
60087;BME280;45960;53.630;55.972;2023-04-24T00:23:21;100506.41;;;5.75;56.26
60087;BME280;45960;53.630;55.972;2023-04-24T00:24:22;100505.75;;;5.70;55.92
60087;BME280;45960;53.630;55.972;2023-04-24T00:25:23;100516.34;;;5.70;56.15
60087;BME280;45960;53.630;55.972;2023-04-24T00:26:24;100512.88;;;5.68;56.15
60087;BME280;45960;53.630;55.972;2023-04-24T00:27:25;100511.09;;;5.68;56.33
60087;BME280;45960;53.630;55.972;2023-04-24T00:28:26;100511.16;;;5.67;56.02
60087;BME280;45960;53.630;55.972;2023-04-24T00:29:27;100516.59;;;5.64;56.27
60087;BME280;45960;53.630;55.972;2023-04-24T00:30:29;100520.16;;;5.63;56.11
60087;BME280;45960;53.630;55.972;2023-04-24T00:31:30;100519.28;;;5.62;56.23
60087;BME280;45960;53.630;55.972;2023-04-24T00:32:32;100518.44;;;5.61;56.09
60087;BME280;45960;53.630;55.972;2023-04-24T00:33:33;100520.16;;;5.63;56.31
60087;BME280;45960;53.630;55.972;2023-04-24T00:34:34;100515.84;;;5.60;56.49
60087;BME280;45960;53.630;55.972;2023-04-24T00:35:35;100514.84;;;5.63;56.25
60087;BME280;45960;53.630;55.972;2023-04-24T00:36:36;100517.59;;;5.61;56.48
60087;BME280;45960;53.630;55.972;2023-04-24T00:37:37;100516.72;;;5.60;56.47
60087;BME280;45960;53.630;55.972;2023-04-24T00:38:38;100514.13;;;5.59;56.53
60087;BME280;45960;53.630;55.972;2023-04-24T00:39:39;100518.56;;;5.58;56.57
60087;BME280;45960;53.630;55.972;2023-04-24T00:40:40;100523.88;;;5.58;56.60
60087;BME280;45960;53.630;55.972;2023-04-24T00:41:41;100511.56;;;5.57;56.80
60087;BME280;45960;53.630;55.972;2023-04-24T00:42:43;100518.69;;;5.55;56.80
60087;BME280;45960;53.630;55.972;2023-04-24T00:43:44;100522.25;;;5.54;56.81
60087;BME280;45960;53.630;55.972;2023-04-24T00:44:47;100524.13;;;5.52;56.66
60087;BME280;45960;53.630;55.972;2023-04-24T00:45:48;100527.69;;;5.51;56.70
60087;BME280;45960;53.630;55.972;2023-04-24T00:46:49;100525.97;;;5.50;56.65
60087;BME280;45960;53.630;55.972;2023-04-24T00:47:56;100526.91;;;5.49;56.57
60087;BME280;45960;53.630;55.972;2023-04-24T00:48:58;100521.72;;;5.46;56.18
60087;BME280;45960;53.630;55.972;2023-04-24T00:50:06;100526.09;;;5.47;56.84
60087;BME280;45960;53.630;55.972;2023-04-24T00:51:09;100520.06;;;5.44;56.65
60087;BME280;45960;53.630;55.972;2023-04-24T00:52:10;100520.91;;;5.44;56.79
60087;BME280;45960;53.630;55.972;2023-04-24T00:53:11;100521.94;;;5.40;56.81
60087;BME280;45960;53.630;55.972;2023-04-24T00:54:13;100525.50;;;5.41;57.01
60087;BME280;45960;53.630;55.972;2023-04-24T00:55:14;100526.34;;;5.41;56.95
60087;BME280;45960;53.630;55.972;2023-04-24T00:56:15;100529.91;;;5.40;57.02
60087;BME280;45960;53.630;55.972;2023-04-24T00:57:17;100526.47;;;5.38;56.96
60087;BME280;45960;53.630;55.972;2023-04-24T00:58:18;100522.88;;;5.39;57.03
60087;BME280;45960;53.630;55.972;2023-04-24T00:59:20;100526.47;;;5.38;57.08
60087;BME280;45960;53.630;55.972;2023-04-24T01:00:21;100527.31;;;5.38;57.10
60087;BME280;45960;53.630;55.972;2023-04-24T01:01:23;100521.28;;;5.35;57.15
60087;BME280;45960;53.630;55.972;2023-04-24T01:02:25;100525.59;;;5.37;57.18
60087;BME280;45960;53.630;55.972;2023-04-24T01:03:29;100526.53;;;5.36;57.08
60087;BME280;45960;53.630;55.972;2023-04-24T01:04:33;100538.91;;;5.36;57.21
60087;BME280;45960;53.630;55.972;2023-04-24T01:05:35;100533.72;;;5.33;57.15
60087;BME280;45960;53.630;55.972;2023-04-24T01:06:38;100535.44;;;5.34;57.08
60087;BME280;45960;53.630;55.972;2023-04-24T01:07:41;100532.00;;;5.32;57.24
60087;BME280;45960;53.630;55.972;2023-04-24T01:08:45;100534.63;;;5.32;57.01
60087;BME280;45960;53.630;55.972;2023-04-24T01:09:48;100540.88;;;5.31;56.93
60087;BME280;45960;53.630;55.972;2023-04-24T01:10:52;100546.16;;;5.31;57.44
60087;BME280;45960;53.630;55.972;2023-04-24T01:11:53;100547.88;;;5.32;57.29
60087;BME280;45960;53.630;55.972;2023-04-24T01:12:55;100547.16;;;5.28;57.19
60087;BME280;45960;53.630;55.972;2023-04-24T01:13:56;100549.75;;;5.30;57.30
60087;BME280;45960;53.630;55.972;2023-04-24T01:14:58;100554.94;;;5.33;57.25
60087;BME280;45960;53.630;55.972;2023-04-24T01:15:59;100556.66;;;5.34;57.30
60087;BME280;45960;53.630;55.972;2023-04-24T01:17:01;100551.34;;;5.34;57.14
60087;BME280;45960;53.630;55.972;2023-04-24T01:18:03;100553.09;;;5.35;57.46
60087;BME280;45960;53.630;55.972;2023-04-24T01:19:06;100553.09;;;5.35;57.25
60087;BME280;45960;53.630;55.972;2023-04-24T01:20:07;100545.16;;;5.35;57.32
60087;BME280;45960;53.630;55.972;2023-04-24T01:21:11;100547.78;;;5.35;57.30
60087;BME280;45960;53.630;55.972;2023-04-24T01:22:14;100512.53;;;5.11;57.29
60087;BME280;45960;53.630;55.972;2023-04-24T01:23:15;100554.81;;;5.36;57.32
60087;BME280;45960;53.630;55.972;2023-04-24T01:24:17;100560.09;;;5.36;57.36
60087;BME280;45960;53.630;55.972;2023-04-24T01:25:20;100558.38;;;5.35;57.37
60087;BME280;45960;53.630;55.972;2023-04-24T01:26:22;100567.13;;;5.37;57.33
60087;BME280;45960;53.630;55.972;2023-04-24T01:27:23;100568.88;;;5.38;57.29
60087;BME280;45960;53.630;55.972;2023-04-24T01:28:24;100556.53;;;5.37;57.30
60087;BME280;45960;53.630;55.972;2023-04-24T01:29:25;100558.25;;;5.38;57.19
60087;BME280;45960;53.630;55.972;2023-04-24T01:30:27;100554.81;;;5.36;57.40
60087;BME280;45960;53.630;55.972;2023-04-24T01:31:28;100570.56;;;5.39;57.16
60087;BME280;45960;53.630;55.972;2023-04-24T01:32:30;100574.94;;;5.40;57.33
60087;BME280;45960;53.630;55.972;2023-04-24T01:33:31;100559.28;;;5.34;57.20
60087;BME280;45960;53.630;55.972;2023-04-24T01:34:33;100572.25;;;5.42;57.44
60087;BME280;45960;53.630;55.972;2023-04-24T01:35:34;100562.75;;;5.36;57.30
60087;BME280;45960;53.630;55.972;2023-04-24T01:36:37;100576.72;;;5.39;57.38
60087;BME280;45960;53.630;55.972;2023-04-24T01:37:38;100568.88;;;5.38;57.55
60087;BME280;45960;53.630;55.972;2023-04-24T01:38:39;100575.75;;;5.42;57.49
60087;BME280;45960;53.630;55.972;2023-04-24T01:39:40;100583.66;;;5.44;57.29
60087;BME280;45960;53.630;55.972;2023-04-24T01:40:41;100577.47;;;5.43;57.40
60087;BME280;45960;53.630;55.972;2023-04-24T01:41:42;100584.50;;;5.44;57.05
60087;BME280;45960;53.630;55.972;2023-04-24T01:42:43;100585.38;;;5.45;57.22
60087;BME280;45960;53.630;55.972;2023-04-24T01:43:45;100589.69;;;5.47;57.46
60087;BME280;45960;53.630;55.972;2023-04-24T01:44:47;100584.28;;;5.50;57.31
60087;BME280;45960;53.630;55.972;2023-04-24T01:45:48;100584.28;;;5.50;57.10
60087;BME280;45960;53.630;55.972;2023-04-24T01:46:49;100584.22;;;5.52;57.31
60087;BME280;45960;53.630;55.972;2023-04-24T01:47:51;100585.00;;;5.54;57.33
60087;BME280;45960;53.630;55.972;2023-04-24T01:48:53;100588.50;;;5.54;57.16
60087;BME280;45960;53.630;55.972;2023-04-24T01:49:54;100587.59;;;5.55;57.16
60087;BME280;45960;53.630;55.972;2023-04-24T01:50:56;100598.94;;;5.59;57.12
60087;BME280;45960;53.630;55.972;2023-04-24T01:51:58;100598.09;;;5.58;57.07
60087;BME280;45960;53.630;55.972;2023-04-24T01:52:59;100603.25;;;5.61;57.07
60087;BME280;45960;53.630;55.972;2023-04-24T01:54:00;100596.13;;;5.64;56.93
60087;BME280;45960;53.630;55.972;2023-04-24T01:55:01;100599.56;;;5.66;56.90
60087;BME280;45960;53.630;55.972;2023-04-24T01:56:02;100597.72;;;5.68;57.17
60087;BME280;45960;53.630;55.972;2023-04-24T01:57:04;100589.97;;;5.63;57.09
60087;BME280;45960;53.630;55.972;2023-04-24T01:58:07;100611.66;;;5.73;57.15
60087;BME280;45960;53.630;55.972;2023-04-24T01:59:10;100609.81;;;5.75;57.08
60087;BME280;45960;53.630;55.972;2023-04-24T02:00:11;100613.25;;;5.77;57.15
60087;BME280;45960;53.630;55.972;2023-04-24T02:01:20;100612.25;;;5.79;57.02
60087;BME280;45960;53.630;55.972;2023-04-24T02:02:22;100610.41;;;5.81;56.96
60087;BME280;45960;53.630;55.972;2023-04-24T02:03:26;100614.69;;;5.86;57.00
60087;BME280;45960;53.630;55.972;2023-04-24T02:04:27;100625.22;;;5.87;57.15
60087;BME280;45960;53.630;55.972;2023-04-24T02:05:28;100614.47;;;5.90;57.17
60087;BME280;45960;53.630;55.972;2023-04-24T02:06:30;100617.94;;;5.92;56.80
60087;BME280;45960;53.630;55.972;2023-04-24T02:07:35;100615.19;;;5.95;57.05
60087;BME280;45960;53.630;55.972;2023-04-24T02:08:36;100619.47;;;5.99;56.98
60087;BME280;45960;53.630;55.972;2023-04-24T02:09:37;100609.63;;;6.01;57.19
60087;BME280;45960;53.630;55.972;2023-04-24T02:10:38;100572.44;;;5.81;57.18
60087;BME280;45960;53.630;55.972;2023-04-24T02:11:39;100619.06;;;6.09;57.03
60087;BME280;45960;53.630;55.972;2023-04-24T02:12:40;100618.94;;;6.12;56.93
60087;BME280;45960;53.630;55.972;2023-04-24T02:13:41;100617.09;;;6.14;56.96
60087;BME280;45960;53.630;55.972;2023-04-24T02:14:43;100623.13;;;6.17;56.80
60087;BME280;45960;53.630;55.972;2023-04-24T02:15:45;100626.50;;;6.21;56.77
60087;BME280;45960;53.630;55.972;2023-04-24T02:16:46;100621.09;;;6.24;56.92
60087;BME280;45960;53.630;55.972;2023-04-24T02:17:47;100620.03;;;6.28;56.79
60087;BME280;45960;53.630;55.972;2023-04-24T02:18:48;100627.06;;;6.29;56.76
60087;BME280;45960;53.630;55.972;2023-04-24T02:19:49;100616.44;;;6.29;56.44
60087;BME280;45960;53.630;55.972;2023-04-24T02:20:51;100622.31;;;6.37;56.85
60087;BME280;45960;53.630;55.972;2023-04-24T02:21:52;100610.75;;;6.38;56.77
60087;BME280;45960;53.630;55.972;2023-04-24T02:22:53;100620.22;;;6.44;56.91
60087;BME280;45960;53.630;55.972;2023-04-24T02:23:54;100582.13;;;6.24;56.88
60087;BME280;45960;53.630;55.972;2023-04-24T02:24:55;100614.59;;;6.52;56.72
60087;BME280;45960;53.630;55.972;2023-04-24T02:25:56;100621.56;;;6.54;56.74
60087;BME280;45960;53.630;55.972;2023-04-24T02:26:58;100616.06;;;6.59;56.74
60087;BME280;45960;53.630;55.972;2023-04-24T02:28:00;100624.78;;;6.62;56.68
60087;BME280;45960;53.630;55.972;2023-04-24T02:29:01;100620.97;;;6.68;56.70
60087;BME280;45960;53.630;55.972;2023-04-24T02:30:02;100622.56;;;6.72;56.63
60087;BME280;45960;53.630;55.972;2023-04-24T02:31:04;100621.50;;;6.76;56.48
60087;BME280;45960;53.630;55.972;2023-04-24T02:32:06;100622.94;;;6.83;56.63
60087;BME280;45960;53.630;55.972;2023-04-24T02:33:08;100628.88;;;6.90;56.36
60087;BME280;45960;53.630;55.972;2023-04-24T02:34:09;100628.59;;;6.96;56.20
60087;BME280;45960;53.630;55.972;2023-04-24T02:35:10;100624.78;;;7.02;56.05
60087;BME280;45960;53.630;55.972;2023-04-24T02:36:11;100627.16;;;7.08;56.32
60087;BME280;45960;53.630;55.972;2023-04-24T02:37:12;100630.34;;;7.16;55.97
60087;BME280;45960;53.630;55.972;2023-04-24T02:38:13;100632.66;;;7.24;56.06
60087;BME280;45960;53.630;55.972;2023-04-24T02:39:14;100629.66;;;7.31;56.01
60087;BME280;45960;53.630;55.972;2023-04-24T02:40:17;100635.50;;;7.39;55.91
60087;BME280;45960;53.630;55.972;2023-04-24T02:41:18;100643.16;;;7.46;55.64
60087;BME280;45960;53.630;55.972;2023-04-24T02:42:19;100634.09;;;7.50;55.59
60087;BME280;45960;53.630;55.972;2023-04-24T02:43:20;100637.25;;;7.58;55.17
60087;BME280;45960;53.630;55.972;2023-04-24T02:44:21;100634.31;;;7.64;55.27
60087;BME280;45960;53.630;55.972;2023-04-24T02:45:23;100638.41;;;7.71;54.99
60087;BME280;45960;53.630;55.972;2023-04-24T02:46:25;100635.56;;;7.76;54.96
60087;BME280;45960;53.630;55.972;2023-04-24T02:47:26;100639.56;;;7.84;54.73
60087;BME280;45960;53.630;55.972;2023-04-24T02:48:27;100625.47;;;7.82;54.26
60087;BME280;45960;53.630;55.972;2023-04-24T02:49:28;100644.28;;;7.97;54.39
60087;BME280;45960;53.630;55.972;2023-04-24T02:50:29;100647.59;;;8.02;54.12
60087;BME280;45960;53.630;55.972;2023-04-24T02:51:30;100643.75;;;8.07;54.27
60087;BME280;45960;53.630;55.972;2023-04-24T02:52:31;100646.13;;;8.14;54.16
60087;BME280;45960;53.630;55.972;2023-04-24T02:53:32;100644.94;;;8.19;53.94
60087;BME280;45960;53.630;55.972;2023-04-24T02:54:34;100641.22;;;8.23;53.82
60087;BME280;45960;53.630;55.972;2023-04-24T02:55:35;100643.47;;;8.31;53.59
60087;BME280;45960;53.630;55.972;2023-04-24T02:56:36;100652.94;;;8.37;53.56
60087;BME280;45960;53.630;55.972;2023-04-24T02:57:39;100649.25;;;8.41;53.51
60087;BME280;45960;53.630;55.972;2023-04-24T02:58:40;100652.66;;;8.43;53.49
60087;BME280;45960;53.630;55.972;2023-04-24T02:59:42;100654.09;;;8.50;53.09
60087;BME280;45960;53.630;55.972;2023-04-24T03:00:43;100649.31;;;8.57;52.92
60087;BME280;45960;53.630;55.972;2023-04-24T03:01:45;100661.38;;;8.64;53.10
60087;BME280;45960;53.630;55.972;2023-04-24T03:02:46;100642.66;;;8.65;52.84
60087;BME280;45960;53.630;55.972;2023-04-24T03:03:47;100658.88;;;8.78;52.79
60087;BME280;45960;53.630;55.972;2023-04-24T03:04:48;100664.72;;;8.85;52.53
60087;BME280;45960;53.630;55.972;2023-04-24T03:05:49;100657.69;;;8.84;52.50
60087;BME280;45960;53.630;55.972;2023-04-24T03:06:52;100664.97;;;8.98;52.55
60087;BME280;45960;53.630;55.972;2023-04-24T03:07:55;100664.75;;;9.02;52.32
60087;BME280;45960;53.630;55.972;2023-04-24T03:08:56;100666.22;;;9.08;52.19
60087;BME280;45960;53.630;55.972;2023-04-24T03:09:57;100663.38;;;9.11;51.74
60087;BME280;45960;53.630;55.972;2023-04-24T03:10:59;100671.91;;;9.17;51.78
60087;BME280;45960;53.630;55.972;2023-04-24T03:12:00;100662.81;;;9.22;51.73
60087;BME280;45960;53.630;55.972;2023-04-24T03:13:01;100671.25;;;9.30;51.62
60087;BME280;45960;53.630;55.972;2023-04-24T03:14:02;100676.25;;;9.36;51.47
60087;BME280;45960;53.630;55.972;2023-04-24T03:15:03;100667.25;;;9.38;51.17
60087;BME280;45960;53.630;55.972;2023-04-24T03:16:04;100666.81;;;9.46;51.27
60087;BME280;45960;53.630;55.972;2023-04-24T03:17:06;100669.91;;;9.54;51.34
60087;BME280;45960;53.630;55.972;2023-04-24T03:18:07;100669.56;;;9.60;50.92
60087;BME280;45960;53.630;55.972;2023-04-24T03:19:08;100669.25;;;9.67;50.86
60087;BME280;45960;53.630;55.972;2023-04-24T03:20:16;100681.13;;;9.77;50.85
60087;BME280;45960;53.630;55.972;2023-04-24T03:21:18;100685.19;;;9.84;50.81
60087;BME280;45960;53.630;55.972;2023-04-24T03:22:19;100680.47;;;9.89;50.45
60087;BME280;45960;53.630;55.972;2023-04-24T03:23:20;100676.47;;;9.96;50.51
60087;BME280;45960;53.630;55.972;2023-04-24T03:24:21;100679.09;;;9.98;50.05
60087;BME280;45960;53.630;55.972;2023-04-24T03:25:23;100677.09;;;10.01;49.93
60087;BME280;45960;53.630;55.972;2023-04-24T03:26:24;100676.75;;;10.07;50.10
60087;BME280;45960;53.630;55.972;2023-04-24T03:27:37;100679.06;;;10.14;50.06
60087;BME280;45960;53.630;55.972;2023-04-24T03:28:42;100678.53;;;10.23;49.85
60087;BME280;45960;53.630;55.972;2023-04-24T03:29:43;100682.84;;;10.25;49.64
60087;BME280;45960;53.630;55.972;2023-04-24T03:30:45;100683.38;;;10.32;49.66
60087;BME280;45960;53.630;55.972;2023-04-24T03:31:47;100679.69;;;10.35;49.53
60087;BME280;45960;53.630;55.972;2023-04-24T03:32:48;100680.28;;;10.40;49.36
60087;BME280;45960;53.630;55.972;2023-04-24T03:33:54;100680.94;;;10.43;49.59
60087;BME280;45960;53.630;55.972;2023-04-24T03:34:55;100682.31;;;10.50;49.46
60087;BME280;45960;53.630;55.972;2023-04-24T03:35:56;100688.22;;;10.56;49.39
60087;BME280;45960;53.630;55.972;2023-04-24T03:36:57;100681.59;;;10.63;49.22
60087;BME280;45960;53.630;55.972;2023-04-24T03:37:59;100684.88;;;10.68;48.91
60087;BME280;45960;53.630;55.972;2023-04-24T03:39:18;100689.06;;;10.72;48.81
60087;BME280;45960;53.630;55.972;2023-04-24T03:40:28;100686.00;;;10.78;48.75
60087;BME280;45960;53.630;55.972;2023-04-24T03:41:31;100688.34;;;10.84;48.89
60087;BME280;45960;53.630;55.972;2023-04-24T03:42:41;100686.22;;;10.89;48.71
60087;BME280;45960;53.630;55.972;2023-04-24T03:43:42;100681.47;;;10.94;48.51
60087;BME280;45960;53.630;55.972;2023-04-24T03:44:44;100680.34;;;10.98;48.24
60087;BME280;45960;53.630;55.972;2023-04-24T03:45:45;100686.28;;;11.04;48.18
60087;BME280;45960;53.630;55.972;2023-04-24T03:46:47;100689.50;;;11.09;47.97
60087;BME280;45960;53.630;55.972;2023-04-24T03:47:49;100689.16;;;11.15;48.00
60087;BME280;45960;53.630;55.972;2023-04-24T03:48:50;100690.69;;;11.19;47.82
60087;BME280;45960;53.630;55.972;2023-04-24T03:49:53;100687.03;;;11.20;47.50
60087;BME280;45960;53.630;55.972;2023-04-24T03:50:56;100693.75;;;11.27;47.75
60087;BME280;45960;53.630;55.972;2023-04-24T03:51:57;100691.66;;;11.32;47.62
60087;BME280;45960;53.630;55.972;2023-04-24T03:53:00;100691.28;;;11.38;47.71
60087;BME280;45960;53.630;55.972;2023-04-24T03:54:10;100693.75;;;11.41;47.40
60087;BME280;45960;53.630;55.972;2023-04-24T03:55:13;100696.03;;;11.48;47.48
60087;BME280;45960;53.630;55.972;2023-04-24T03:56:19;100699.09;;;11.56;47.43
60087;BME280;45960;53.630;55.972;2023-04-24T03:57:21;100700.66;;;11.60;47.21
60087;BME280;45960;53.630;55.972;2023-04-24T03:58:35;100687.84;;;11.65;46.80
60087;BME280;45960;53.630;55.972;2023-04-24T03:59:36;100699.88;;;11.72;46.74
60087;BME280;45960;53.630;55.972;2023-04-24T04:00:46;100700.63;;;11.74;46.55
60087;BME280;45960;53.630;55.972;2023-04-24T04:02:11;100691.63;;;11.75;46.36
60087;BME280;45960;53.630;55.972;2023-04-24T04:03:12;100699.25;;;11.81;46.63
60087;BME280;45960;53.630;55.972;2023-04-24T04:04:14;100697.19;;;11.86;46.28
60087;BME280;45960;53.630;55.972;2023-04-24T04:05:16;100698.72;;;11.91;46.40
60087;BME280;45960;53.630;55.972;2023-04-24T04:06:17;100701.09;;;11.95;46.27
60087;BME280;45960;53.630;55.972;2023-04-24T04:07:20;100698.72;;;11.91;46.23
60087;BME280;45960;53.630;55.972;2023-04-24T04:08:21;100703.69;;;11.97;45.98
60087;BME280;45960;53.630;55.972;2023-04-24T04:09:22;100703.09;;;12.06;46.11
60087;BME280;45960;53.630;55.972;2023-04-24T04:10:23;100704.50;;;12.12;45.77
60087;BME280;45960;53.630;55.972;2023-04-24T04:11:25;100700.38;;;12.20;45.63
60087;BME280;45960;53.630;55.972;2023-04-24T04:12:27;100703.41;;;12.28;45.45
60087;BME280;45960;53.630;55.972;2023-04-24T04:13:28;100710.84;;;12.38;45.35
60087;BME280;45960;53.630;55.972;2023-04-24T04:14:29;100716.53;;;12.46;45.29
60087;BME280;45960;53.630;55.972;2023-04-24T04:15:30;100705.63;;;12.49;44.82
60087;BME280;45960;53.630;55.972;2023-04-24T04:16:31;100706.84;;;12.58;44.82
60087;BME280;45960;53.630;55.972;2023-04-24T04:17:37;100709.13;;;12.64;44.57
60087;BME280;45960;53.630;55.972;2023-04-24T04:18:40;100710.63;;;12.68;44.29
60087;BME280;45960;53.630;55.972;2023-04-24T04:19:42;100711.94;;;12.75;44.25
60087;BME280;45960;53.630;55.972;2023-04-24T04:20:43;100716.66;;;12.84;44.13
60087;BME280;45960;53.630;55.972;2023-04-24T04:21:47;100715.41;;;12.90;43.83
60087;BME280;45960;53.630;55.972;2023-04-24T04:23:00;100716.94;;;12.94;43.95
60087;BME280;45960;53.630;55.972;2023-04-24T04:24:13;100709.59;;;12.96;43.99
60087;BME280;45960;53.630;55.972;2023-04-24T04:25:18;100711.13;;;13.00;43.72
60087;BME280;45960;53.630;55.972;2023-04-24T04:26:21;100717.78;;;13.07;43.56
60087;BME280;45960;53.630;55.972;2023-04-24T04:27:42;100716.94;;;13.19;43.57
60087;BME280;45960;53.630;55.972;2023-04-24T04:28:45;100708.38;;;13.27;43.32
60087;BME280;45960;53.630;55.972;2023-04-24T04:29:48;100717.72;;;13.34;43.07
60087;BME280;45960;53.630;55.972;2023-04-24T04:30:50;100717.22;;;13.42;42.92
60087;BME280;45960;53.630;55.972;2023-04-24T04:31:55;100709.03;;;13.43;43.10
60087;BME280;45960;53.630;55.972;2023-04-24T04:32:56;100716.75;;;13.48;42.84
60087;BME280;45960;53.630;55.972;2023-04-24T04:33:57;100718.03;;;13.55;42.91
60087;BME280;45960;53.630;55.972;2023-04-24T04:35:00;100710.28;;;13.63;42.63
60087;BME280;45960;53.630;55.972;2023-04-24T04:36:05;100718.88;;;13.69;42.33
60087;BME280;45960;53.630;55.972;2023-04-24T04:37:07;100716.97;;;13.71;42.43
60087;BME280;45960;53.630;55.972;2023-04-24T04:38:19;100721.66;;;13.80;42.30
60087;BME280;45960;53.630;55.972;2023-04-24T04:39:33;100724.56;;;13.90;42.01
60087;BME280;45960;53.630;55.972;2023-04-24T04:40:37;100720.56;;;13.95;41.66
60087;BME280;45960;53.630;55.972;2023-04-24T04:41:40;100726.75;;;14.08;41.43
60087;BME280;45960;53.630;55.972;2023-04-24T04:42:43;100726.34;;;14.15;41.40
60087;BME280;45960;53.630;55.972;2023-04-24T04:43:47;100725.66;;;14.24;41.46
60087;BME280;45960;53.630;55.972;2023-04-24T04:44:49;100724.22;;;14.31;40.92
60087;BME280;45960;53.630;55.972;2023-04-24T04:45:54;100723.03;;;14.35;40.88
60087;BME280;45960;53.630;55.972;2023-04-24T04:47:02;100729.44;;;14.45;40.40
60087;BME280;45960;53.630;55.972;2023-04-24T04:48:08;100729.44;;;14.45;40.04
60087;BME280;45960;53.630;55.972;2023-04-24T04:49:11;100720.41;;;14.46;40.39
60087;BME280;45960;53.630;55.972;2023-04-24T04:50:12;100736.09;;;14.52;40.34
60087;BME280;45960;53.630;55.972;2023-04-24T04:51:14;100727.69;;;14.57;40.21
60087;BME280;45960;53.630;55.972;2023-04-24T04:52:15;100733.00;;;14.70;40.06
60087;BME280;45960;53.630;55.972;2023-04-24T04:53:18;100728.66;;;14.80;40.22
60087;BME280;45960;53.630;55.972;2023-04-24T04:54:19;100729.69;;;14.90;39.89
60087;BME280;45960;53.630;55.972;2023-04-24T04:55:20;100717.81;;;14.93;39.20
60087;BME280;45960;53.630;55.972;2023-04-24T04:56:40;100737.78;;;15.02;39.05
60087;BME280;45960;53.630;55.972;2023-04-24T04:57:41;100732.78;;;15.08;38.55
60087;BME280;45960;53.630;55.972;2023-04-24T04:58:42;100731.78;;;15.09;38.28
60087;BME280;45960;53.630;55.972;2023-04-24T04:59:47;100734.88;;;15.16;37.98
60087;BME280;45960;53.630;55.972;2023-04-24T05:00:56;100734.16;;;15.25;38.28
60087;BME280;45960;53.630;55.972;2023-04-24T05:02:04;100725.25;;;15.36;38.33
60087;BME280;45960;53.630;55.972;2023-04-24T05:03:06;100730.75;;;15.45;38.04
60087;BME280;45960;53.630;55.972;2023-04-24T05:04:07;100728.31;;;15.54;37.77
60087;BME280;45960;53.630;55.972;2023-04-24T05:05:08;100729.31;;;15.64;37.60
60087;BME280;45960;53.630;55.972;2023-04-24T05:06:10;100737.44;;;15.75;37.42
60087;BME280;45960;53.630;55.972;2023-04-24T05:07:13;100735.00;;;15.83;36.82
60087;BME280;45960;53.630;55.972;2023-04-24T05:08:19;100730.59;;;15.94;36.84
60087;BME280;45960;53.630;55.972;2023-04-24T05:09:20;100734.50;;;16.01;36.80
60087;BME280;45960;53.630;55.972;2023-04-24T05:10:28;100727.63;;;16.08;36.76
60087;BME280;45960;53.630;55.972;2023-04-24T05:11:31;100739.25;;;16.20;36.79
60087;BME280;45960;53.630;55.972;2023-04-24T05:12:33;100741.34;;;16.27;36.59
60087;BME280;45960;53.630;55.972;2023-04-24T05:13:35;100740.09;;;16.31;36.22
60087;BME280;45960;53.630;55.972;2023-04-24T05:14:38;100735.19;;;16.37;36.17
60087;BME280;45960;53.630;55.972;2023-04-24T05:15:39;100741.38;;;16.48;35.84
60087;BME280;45960;53.630;55.972;2023-04-24T05:16:40;100740.03;;;16.54;35.26
60087;BME280;45960;53.630;55.972;2023-04-24T05:17:43;100737.56;;;16.62;35.27
60087;BME280;45960;53.630;55.972;2023-04-24T05:18:45;100743.00;;;16.72;35.29
60087;BME280;45960;53.630;55.972;2023-04-24T05:19:49;100736.91;;;16.81;35.27
60087;BME280;45960;53.630;55.972;2023-04-24T05:20:51;100746.91;;;16.90;35.25
60087;BME280;45960;53.630;55.972;2023-04-24T05:21:52;100754.09;;;17.01;34.99
60087;BME280;45960;53.630;55.972;2023-04-24T05:22:53;100742.78;;;17.07;34.54
60087;BME280;45960;53.630;55.972;2023-04-24T05:23:55;100745.94;;;17.12;34.64
60087;BME280;45960;53.630;55.972;2023-04-24T05:25:10;100745.22;;;17.10;34.55